createdAt,value
2022-10-18T00:01:45.791Z,42.75
2022-10-18T00:06:54.025Z,45.15
2022-10-18T00:11:58.353Z,44.45
2022-10-18T00:17:00.032Z,46.17
2022-10-18T00:22:04.286Z,47.60
2022-10-18T00:27:05.980Z,46.40
2022-10-18T00:32:12.341Z,46.20
2022-10-18T00:37:18.649Z,44.75
2022-10-18T00:42:33.008Z,43.17
2022-10-18T00:47:38.252Z,43.67
2022-10-18T00:52:43.008Z,43.95
2022-10-18T00:57:46.447Z,40.72
2022-10-18T01:02:50.484Z,42.97
2022-10-18T01:07:57.528Z,40.13
2022-10-18T01:13:26.409Z,44.08
2022-10-18T01:18:34.666Z,43.13
2022-10-18T01:24:08.884Z,46.08
2022-10-18T01:29:31.880Z,43.20
2022-10-18T01:34:38.464Z,45.22
2022-10-18T01:39:42.369Z,44.58
2022-10-18T01:44:47.301Z,47.45
2022-10-18T01:50:00.653Z,50.40
2022-10-18T01:55:09.552Z,49.53
2022-10-18T02:00:19.853Z,48.30
2022-10-18T02:05:53.861Z,47.20
2022-10-18T02:11:10.522Z,43.75
2022-10-18T02:16:19.294Z,43.78
2022-10-18T02:21:21.555Z,54.53
2022-10-18T02:26:26.494Z,47.97
2022-10-18T02:31:39.994Z,51.17
2022-10-18T02:36:59.741Z,53.85
2022-10-18T02:42:06.974Z,45.05
2022-10-18T02:47:15.118Z,51.55
2022-10-18T02:52:21.608Z,44.33
2022-10-18T02:57:26.682Z,46.55
2022-10-18T03:02:28.363Z,45.63
2022-10-18T03:07:32.667Z,43.58
2022-10-18T03:12:36.595Z,41.38
2022-10-18T03:17:42.981Z,38.13
2022-10-18T03:22:49.042Z,38.30
2022-10-18T03:27:51.284Z,42.00
2022-10-18T03:33:00.012Z,40.00
2022-10-18T03:38:07.767Z,36.15
2022-10-18T03:43:10.311Z,40.72
2022-10-18T03:48:14.428Z,41.00
2022-10-18T03:53:18.331Z,40.45
2022-10-18T03:58:27.073Z,39.50
2022-10-18T04:03:28.774Z,39.70
2022-10-18T04:08:30.594Z,37.53
2022-10-18T04:13:34.796Z,39.55
2022-10-18T04:18:36.471Z,40.17
2022-10-18T04:23:38.976Z,39.28
2022-10-18T04:28:40.975Z,38.90
2022-10-18T04:33:42.705Z,36.38
2022-10-18T04:38:49.761Z,36.35
2022-10-18T04:43:54.511Z,38.22
2022-10-18T04:49:01.588Z,37.22
2022-10-18T04:54:06.171Z,32.05
2022-10-18T04:59:08.901Z,39.58
2022-10-18T05:04:11.513Z,35.33
2022-10-18T05:09:18.631Z,38.13
2022-10-18T05:14:22.571Z,35.95
2022-10-18T05:19:31.264Z,32.42
2022-10-18T05:24:37.440Z,32.10
2022-10-18T05:29:39.209Z,36.60
2022-10-18T05:34:42.996Z,34.92
2022-10-18T05:39:47.254Z,34.60
2022-10-18T05:44:51.553Z,34.08
2022-10-18T05:49:55.455Z,34.55
2022-10-18T05:54:59.774Z,36.10
2022-10-18T06:00:05.235Z,35.47
2022-10-18T06:05:18.939Z,34.53
2022-10-18T06:10:22.781Z,36.80
2022-10-18T06:15:27.064Z,37.63
2022-10-18T06:20:33.372Z,30.80
2022-10-18T06:25:37.418Z,32.72
2022-10-18T06:30:44.587Z,34.85
2022-10-18T06:36:02.480Z,32.92
2022-10-18T06:41:05.377Z,31.92
2022-10-18T06:46:11.752Z,32.75
2022-10-18T06:51:15.728Z,31.15
2022-10-18T06:56:22.291Z,28.35
2022-10-18T07:01:32.437Z,29.05
2022-10-18T07:06:34.373Z,36.97
2022-10-18T07:11:36.205Z,28.95
2022-10-18T07:16:42.164Z,31.95
2022-10-18T07:21:43.920Z,30.23
2022-10-18T07:26:47.897Z,27.10
2022-10-18T07:31:53.932Z,25.65
2022-10-18T07:36:57.974Z,24.17
2022-10-18T07:42:01.868Z,23.92
2022-10-18T07:47:07.846Z,22.33
2022-10-18T07:52:12.068Z,22.70
2022-10-18T07:57:16.141Z,22.30
2022-10-18T08:02:17.910Z,23.40
2022-10-18T08:07:26.009Z,22.15
2022-10-18T08:12:27.853Z,24.08
2022-10-18T08:17:34.770Z,22.17
2022-10-18T08:22:39.028Z,20.10
2022-10-18T08:27:42.851Z,18.50
2022-10-18T08:32:51.806Z,16.42
2022-10-18T08:37:54.206Z,16.55
2022-10-18T08:43:03.340Z,17.00
2022-10-18T08:48:09.187Z,16.65
2022-10-18T08:53:22.145Z,15.43
2022-10-18T08:58:26.762Z,15.48
2022-10-18T09:03:50.656Z,15.07
2022-10-18T09:09:01.867Z,16.00
2022-10-18T09:14:28.340Z,12.63
2022-10-18T09:19:29.994Z,12.35
2022-10-18T09:24:40.781Z,11.43
2022-10-18T09:29:57.491Z,11.27
2022-10-18T09:35:27.168Z,10.65
2022-10-18T09:40:34.018Z,10.07
2022-10-18T09:45:39.379Z,8.75
2022-10-18T09:51:12.174Z,8.95
2022-10-18T09:56:26.725Z,8.52
2022-10-18T10:01:32.262Z,7.93
2022-10-18T10:06:39.432Z,6.57
2022-10-18T10:11:47.554Z,6.32
2022-10-18T10:16:56.105Z,5.97
2022-10-18T10:22:06.780Z,5.35
2022-10-18T10:27:17.170Z,5.10
2022-10-18T10:32:21.165Z,4.95
2022-10-18T10:37:35.437Z,4.68
2022-10-18T10:42:38.923Z,4.47
2022-10-18T10:47:43.026Z,3.90
2022-10-18T10:52:47.290Z,3.58
2022-10-18T10:57:52.444Z,3.90
2022-10-18T11:03:27.813Z,2.50
2022-10-18T11:08:41.676Z,2.90
2022-10-18T11:19:49.180Z,2.80
2022-10-18T11:24:53.318Z,2.72
2022-10-18T11:30:23.480Z,2.30
2022-10-18T11:35:43.637Z,2.45
2022-10-18T11:41:22.592Z,2.03
2022-10-18T11:46:49.013Z,2.42
2022-10-18T11:52:09.158Z,2.53
2022-10-18T11:57:20.102Z,2.30
2022-10-18T12:02:44.535Z,2.28
2022-10-18T12:07:55.711Z,2.15
2022-10-18T12:13:02.083Z,2.55
2022-10-18T12:18:11.740Z,2.15
2022-10-18T12:23:20.608Z,2.50
2022-10-18T12:28:44.562Z,2.72
2022-10-18T12:33:53.458Z,2.47
2022-10-18T12:39:03.827Z,2.78
2022-10-18T12:44:06.972Z,2.53
2022-10-18T12:49:14.851Z,1.80
2022-10-18T12:54:25.415Z,2.50
2022-10-18T12:59:28.093Z,2.35
2022-10-18T13:04:33.518Z,2.38
2022-10-18T13:09:37.225Z,2.47
2022-10-18T13:15:24.690Z,2.80
2022-10-18T13:20:54.426Z,2.00
2022-10-18T13:26:15.918Z,1.98
2022-10-18T13:31:37.603Z,2.75
2022-10-18T13:36:42.378Z,2.53
2022-10-18T13:41:46.751Z,2.40
2022-10-18T13:46:53.267Z,2.20
2022-10-18T13:52:37.288Z,2.10
2022-10-18T13:58:06.281Z,2.10
2022-10-18T14:03:54.975Z,2.10
2022-10-18T14:09:13.770Z,2.40
2022-10-18T14:14:46.008Z,2.08
2022-10-18T14:19:57.890Z,2.13
2022-10-18T14:25:17.382Z,1.67
2022-10-18T14:30:20.928Z,1.75
2022-10-18T14:35:32.964Z,2.40
2022-10-18T14:40:38.944Z,1.88
2022-10-18T14:45:45.070Z,2.28
2022-10-18T14:50:59.195Z,2.00
2022-10-18T14:56:05.269Z,2.10
2022-10-18T15:01:07.103Z,1.85
2022-10-18T15:06:19.184Z,2.10
2022-10-18T15:11:21.146Z,1.65
2022-10-18T15:16:28.281Z,2.58
2022-10-18T15:21:32.728Z,2.35
2022-10-18T15:26:34.528Z,2.10
2022-10-18T15:31:37.655Z,2.05
2022-10-18T15:41:46.141Z,2.10
2022-10-18T15:47:20.288Z,1.95
2022-10-18T15:52:22.194Z,2.05
2022-10-18T15:57:29.126Z,2.30
2022-10-18T16:02:38.106Z,1.98
2022-10-18T16:07:42.004Z,2.65
2022-10-18T16:12:43.907Z,2.45
2022-10-18T16:17:53.802Z,1.75
2022-10-18T16:22:55.683Z,2.08
2022-10-18T16:28:00.051Z,1.98
2022-10-18T16:33:04.977Z,4.60
2022-10-18T16:38:11.640Z,2.20
2022-10-18T16:43:18.402Z,3.75
2022-10-18T16:48:22.673Z,2.00
2022-10-18T16:53:26.113Z,2.25
2022-10-18T16:58:33.008Z,2.30
2022-10-18T17:03:38.550Z,2.60
2022-10-18T17:08:43.125Z,2.70
2022-10-18T17:13:50.861Z,2.38
2022-10-18T17:18:52.834Z,3.30
2022-10-18T17:24:00.441Z,2.55
2022-10-18T17:29:09.961Z,2.38
2022-10-18T17:34:12.679Z,2.72
2022-10-18T17:39:19.795Z,2.08
2022-10-18T17:44:22.341Z,2.22
2022-10-18T17:49:24.602Z,2.50
2022-10-18T17:54:26.368Z,2.10
2022-10-18T17:59:29.073Z,1.90
2022-10-18T18:04:30.790Z,1.90
2022-10-18T18:09:32.569Z,2.25
2022-10-18T18:14:34.521Z,2.42
2022-10-18T18:19:36.561Z,2.08
2022-10-18T18:24:41.178Z,1.73
2022-10-18T18:29:43.946Z,2.38
2022-10-18T18:34:48.202Z,2.75
2022-10-18T18:39:50.813Z,2.60
2022-10-18T18:44:52.973Z,2.00
2022-10-18T18:49:55.827Z,2.00
2022-10-18T18:54:57.666Z,1.67
2022-10-18T19:00:01.610Z,1.10
2022-10-18T19:05:03.768Z,1.40
2022-10-18T19:10:06.917Z,1.50
2022-10-18T19:15:10.076Z,1.52
2022-10-18T19:20:15.198Z,1.40
2022-10-18T19:25:17.030Z,2.03
2022-10-18T19:30:22.407Z,2.03
2022-10-18T19:35:26.484Z,1.50
2022-10-18T19:40:28.295Z,1.35
2022-10-18T19:45:32.739Z,1.55
2022-10-18T19:50:38.140Z,1.85
2022-10-18T19:55:39.923Z,1.60
2022-10-18T20:00:44.687Z,1.58
2022-10-18T20:05:57.940Z,2.05
2022-10-18T20:11:11.521Z,1.80
2022-10-18T20:16:18.854Z,1.98
2022-10-18T20:21:20.584Z,2.05
2022-10-18T20:26:25.441Z,2.10
2022-10-18T20:31:32.414Z,1.80
2022-10-18T20:36:36.296Z,2.40
2022-10-18T20:41:42.771Z,2.63
2022-10-18T20:46:44.557Z,2.22
2022-10-18T20:51:47.282Z,2.25
2022-10-18T20:56:55.888Z,2.42
2022-10-18T21:02:06.415Z,1.95
2022-10-18T21:07:08.119Z,2.10
2022-10-18T21:12:13.281Z,2.22
2022-10-18T21:17:14.995Z,1.92
2022-10-18T21:22:21.139Z,1.85
2022-10-18T21:27:23.862Z,1.80
2022-10-18T21:32:25.527Z,2.05
2022-10-18T21:37:31.830Z,1.52
2022-10-18T21:42:36.556Z,1.80
2022-10-18T21:47:40.709Z,1.25
2022-10-18T21:52:45.420Z,1.58
2022-10-18T21:57:51.861Z,1.27
2022-10-18T22:03:09.586Z,1.30
2022-10-18T22:08:12.292Z,1.33
2022-10-18T22:13:16.049Z,1.60
2022-10-18T22:18:19.913Z,1.30
2022-10-18T22:23:33.692Z,1.70
2022-10-18T22:28:36.219Z,1.40
2022-10-18T22:33:38.689Z,1.45
2022-10-18T22:38:45.728Z,2.03
2022-10-18T22:43:53.037Z,1.70
2022-10-18T22:48:57.977Z,1.58
2022-10-18T22:54:02.047Z,1.48
2022-10-18T22:59:05.802Z,1.45
2022-10-18T23:04:12.704Z,1.45
2022-10-18T23:09:16.864Z,1.25
2022-10-18T23:14:19.010Z,1.45
2022-10-18T23:19:22.694Z,1.35
2022-10-18T23:24:24.525Z,1.73
2022-10-18T23:29:28.545Z,1.55
2022-10-18T23:34:32.722Z,1.63
2022-10-18T23:39:37.182Z,1.50
2022-10-18T23:44:43.520Z,1.63
2022-10-18T23:49:53.216Z,1.88
2022-10-18T23:54:57.234Z,2.20
